createdAt,value
2019-01-29T08:28:39.321Z,1.60
2019-01-29T08:29:35.918Z,1.40
2019-01-29T08:31:09.234Z,1.60
2019-01-29T08:32:08.283Z,1.60
2019-01-29T08:33:07.702Z,1.40
2019-01-29T08:34:06.737Z,1.50
2019-01-29T08:35:08.078Z,1.40
2019-01-29T08:36:08.028Z,1.70
2019-01-29T08:37:15.643Z,1.20
2019-01-29T08:38:09.108Z,1.50
2019-01-29T08:44:15.510Z,1.10
2019-01-29T08:45:14.883Z,1.00
2019-01-29T08:45:48.885Z,1.50
2019-01-29T08:46:50.125Z,1.20
2019-01-29T08:47:50.071Z,1.20
2019-01-29T08:48:51.685Z,1.10
2019-01-29T08:49:50.058Z,1.10
2019-01-29T08:50:49.799Z,1.30
2019-01-29T08:51:48.796Z,1.00
2019-01-29T08:52:48.806Z,1.10
2019-01-29T08:53:48.668Z,1.10
2019-01-29T08:54:48.767Z,1.60
2019-01-29T08:55:48.949Z,1.30
2019-01-29T08:56:48.771Z,1.20
2019-01-29T08:57:49.113Z,1.10
2019-01-29T08:58:48.755Z,1.10
2019-01-29T08:59:55.609Z,1.20
2019-01-29T09:00:51.134Z,1.10
2019-01-29T09:01:57.445Z,1.20
2019-01-29T09:02:50.629Z,1.00
2019-01-29T09:03:51.136Z,1.10
2019-01-29T09:04:53.350Z,0.90
2019-01-29T09:05:50.430Z,1.20
2019-01-29T09:06:54.829Z,1.00
2019-01-29T09:07:48.815Z,1.20
2019-01-29T09:08:48.805Z,1.00
2019-01-29T09:09:48.678Z,0.90
2019-01-29T09:10:50.725Z,0.90
2019-01-29T09:11:57.023Z,1.00
2019-01-29T09:12:56.043Z,1.10
2019-01-29T09:13:54.473Z,1.30
2019-01-29T09:14:56.746Z,1.10
2019-01-29T09:15:48.748Z,1.10
2019-01-29T09:16:53.504Z,1.20
2019-01-29T09:17:53.165Z,1.10
2019-01-29T09:18:51.876Z,1.20
2019-01-29T09:19:50.135Z,1.10
2019-01-29T09:20:55.738Z,1.20
2019-01-29T09:21:50.241Z,1.50
2019-01-29T09:22:53.247Z,1.10
2019-01-29T09:23:55.662Z,1.20
2019-01-29T09:24:51.925Z,1.40
2019-01-29T09:25:50.164Z,1.20
2019-01-29T09:27:09.485Z,1.20
2019-01-29T09:27:49.581Z,1.70
2019-01-29T09:28:48.356Z,1.50
2019-01-29T09:29:51.891Z,1.60
2019-01-29T09:30:52.966Z,1.30
2019-01-29T09:31:51.281Z,1.20
2019-01-29T09:32:51.835Z,1.30
2019-01-29T09:33:53.693Z,1.40
2019-01-29T09:34:50.861Z,1.60
2019-01-29T09:35:52.582Z,1.30
2019-01-29T09:36:53.355Z,1.30
2019-01-29T09:37:52.022Z,1.30
2019-01-29T09:38:59.665Z,1.10
2019-01-29T09:39:50.010Z,1.30
2019-01-29T09:40:57.099Z,1.10
2019-01-29T09:41:49.873Z,1.30
2019-01-29T09:42:49.467Z,1.60
2019-01-29T09:44:03.457Z,1.50
2019-01-29T09:44:57.527Z,1.20
2019-01-29T09:45:50.303Z,1.30
2019-01-29T09:46:52.311Z,1.20
2019-01-29T09:47:50.299Z,1.50
2019-01-29T09:48:50.372Z,1.30
2019-01-29T09:49:49.984Z,1.60
2019-01-29T09:50:50.137Z,1.60
2019-01-29T09:51:48.423Z,1.60
2019-01-29T09:52:48.217Z,1.40
2019-01-29T09:53:48.222Z,1.50
2019-01-29T09:54:52.117Z,1.30
2019-01-29T09:55:55.113Z,1.60
2019-01-29T09:56:49.093Z,1.40
2019-01-29T09:58:02.638Z,1.40
2019-01-29T09:58:48.079Z,1.30
2019-01-29T10:00:01.779Z,1.50
2019-01-29T10:00:49.570Z,1.70
2019-01-29T10:01:48.134Z,1.90
2019-01-29T10:02:59.404Z,1.50
2019-01-29T10:03:57.431Z,1.50
2019-01-29T10:04:56.476Z,1.40
2019-01-29T10:05:53.444Z,1.80
2019-01-29T10:07:24.563Z,1.60
2019-01-29T10:07:53.571Z,1.60
2019-01-29T10:08:48.815Z,1.50
2019-01-29T10:09:59.898Z,1.60
2019-01-29T10:10:48.153Z,1.70
2019-01-29T10:11:48.352Z,1.40
2019-01-29T10:12:48.034Z,1.40
2019-01-29T10:13:49.776Z,1.80
2019-01-29T10:14:53.778Z,1.60
2019-01-29T10:15:48.218Z,1.70
2019-01-29T10:17:25.613Z,1.60
2019-01-29T10:17:49.813Z,1.50
2019-01-29T10:18:49.432Z,1.40
2019-01-29T10:19:52.595Z,1.50
2019-01-29T10:20:50.057Z,1.70
2019-01-29T10:25:53.963Z,1.90
2019-01-29T10:27:16.245Z,1.80
2019-01-29T10:28:01.618Z,1.60
2019-01-29T10:30:40.940Z,2.00
2019-01-29T10:31:20.926Z,1.70
2019-01-29T10:32:24.605Z,1.80
2019-01-29T10:33:11.398Z,1.60
2019-01-29T10:34:14.624Z,1.60
2019-01-29T10:35:11.418Z,1.80
2019-01-29T10:36:11.459Z,1.60
2019-01-29T10:37:22.306Z,1.30
2019-01-29T10:38:18.236Z,1.50
2019-01-29T10:39:36.946Z,1.50
2019-01-29T10:40:13.012Z,1.50
2019-01-29T10:41:26.259Z,1.50
2019-01-29T10:42:13.446Z,1.70
2019-01-29T10:43:21.579Z,1.90
2019-01-29T10:44:27.755Z,1.60
2019-01-29T10:45:14.171Z,1.40
2019-01-29T10:46:15.408Z,1.60
2019-01-29T10:47:12.082Z,1.60
2019-01-29T10:48:23.808Z,1.50
2019-01-29T10:49:15.561Z,1.70
2019-01-29T10:50:23.764Z,1.70
2019-01-29T10:51:13.894Z,1.50
2019-01-29T10:52:13.487Z,2.00
2019-01-29T10:53:14.902Z,1.60
2019-01-29T10:54:12.287Z,1.90
2019-01-29T10:55:13.591Z,1.70
2019-01-29T10:56:15.944Z,1.60
2019-01-29T10:57:11.250Z,1.60
2019-01-29T10:58:11.193Z,1.60
2019-01-29T10:59:11.565Z,1.70
2019-01-29T11:00:12.236Z,1.70
2019-01-29T11:01:14.270Z,1.60
2019-01-29T11:02:15.529Z,2.00
2019-01-29T11:03:18.006Z,1.80
2019-01-29T11:04:11.056Z,1.80
2019-01-29T11:05:16.785Z,1.70
2019-01-29T11:06:13.392Z,2.00
2019-01-29T11:07:11.074Z,1.90
2019-01-29T11:08:10.983Z,2.40
2019-01-29T11:09:10.962Z,1.90
2019-01-29T11:10:10.977Z,1.80
2019-01-29T11:11:17.696Z,1.90
2019-01-29T11:12:17.549Z,2.00
2019-01-29T11:13:15.552Z,2.10
2019-01-29T11:14:15.987Z,2.30
2019-01-29T11:45:44.127Z,1.20
2019-01-29T11:46:43.648Z,1.80
2019-01-29T11:47:34.580Z,2.10
2019-01-29T11:48:35.109Z,1.60
2019-01-29T11:49:44.590Z,1.70
2019-01-29T11:50:34.642Z,1.80
2019-01-29T11:51:34.669Z,1.80
2019-01-29T11:52:34.518Z,1.70
2019-01-29T11:53:34.330Z,1.70
2019-01-29T11:54:34.661Z,2.00
2019-01-29T11:55:34.367Z,1.80
2019-01-29T11:57:52.203Z,2.00
2019-01-29T11:58:54.198Z,2.30
2019-01-29T11:59:52.950Z,1.90
2019-01-29T12:00:52.717Z,2.30
2019-01-29T12:01:55.113Z,1.70
2019-01-29T12:02:59.727Z,1.90
2019-01-29T12:03:57.068Z,1.70
2019-01-29T12:04:53.296Z,2.10
2019-01-29T12:05:57.530Z,2.00
2019-01-29T12:06:51.625Z,2.00
2019-01-29T12:07:54.417Z,1.80
2019-01-29T12:08:51.474Z,2.00
2019-01-29T12:09:51.906Z,1.90
2019-01-29T12:10:51.448Z,2.00
2019-01-29T12:11:53.944Z,2.10
2019-01-29T12:12:55.324Z,2.20
2019-01-29T12:13:56.720Z,2.10
2019-01-29T12:14:56.650Z,2.30
2019-01-29T12:16:00.248Z,2.00
2019-01-29T12:16:51.359Z,2.10
2019-01-29T12:17:53.628Z,2.20
2019-01-29T12:18:54.375Z,2.10
2019-01-29T12:19:53.672Z,2.30
2019-01-29T12:21:00.142Z,2.30
2019-01-29T12:21:54.290Z,2.30
2019-01-29T12:22:51.416Z,2.40
2019-01-29T12:23:56.731Z,2.20
2019-01-29T12:24:56.029Z,2.00
2019-01-29T12:25:53.617Z,2.10
2019-01-29T12:26:52.765Z,2.00
2019-01-29T12:27:51.966Z,2.00
2019-01-29T12:28:51.330Z,2.30
2019-01-29T12:30:08.737Z,2.20
2019-01-29T12:30:52.827Z,2.20
2019-01-29T12:31:52.887Z,2.30
2019-01-29T12:34:51.932Z,1.70
2019-01-29T12:35:55.231Z,2.30
2019-01-29T12:36:51.872Z,2.30
2019-01-29T12:37:51.795Z,2.20
2019-01-29T12:40:13.968Z,2.90
2019-01-29T12:41:11.806Z,2.20
2019-01-29T12:42:09.835Z,2.20
2019-01-29T12:43:19.049Z,2.10
2019-01-29T12:44:18.375Z,2.20
2019-01-29T12:45:11.158Z,2.20
2019-01-29T12:46:07.735Z,2.20
2019-01-29T12:47:08.381Z,2.20
2019-01-29T12:48:10.027Z,2.20
2019-01-29T12:49:07.506Z,2.50
2019-01-29T12:51:34.597Z,3.20
2019-01-29T12:52:34.158Z,2.90
